sensor_id;sensor_type;location;lat;lon;timestamp;P1;durP1;ratioP1;P2;durP2;ratioP2
14118;SDS011;7138;49.246;9.100;2022-11-20T00:02:02;18.30;;;9.68;;
14118;SDS011;7138;49.246;9.100;2022-11-20T00:04:28;19.42;;;9.95;;
14118;SDS011;7138;49.246;9.100;2022-11-20T00:06:54;18.25;;;9.45;;
14118;SDS011;7138;49.246;9.100;2022-11-20T00:09:20;21.00;;;10.65;;
14118;SDS011;7138;49.246;9.100;2022-11-20T00:11:46;18.48;;;9.65;;
14118;SDS011;7138;49.246;9.100;2022-11-20T00:14:11;17.88;;;9.48;;
14118;SDS011;7138;49.246;9.100;2022-11-20T00:16:39;18.27;;;10.10;;
14118;SDS011;7138;49.246;9.100;2022-11-20T00:19:04;21.00;;;10.63;;
14118;SDS011;7138;49.246;9.100;2022-11-20T00:21:31;19.92;;;10.05;;
14118;SDS011;7138;49.246;9.100;2022-11-20T00:23:57;20.27;;;10.20;;
14118;SDS011;7138;49.246;9.100;2022-11-20T00:26:24;22.02;;;10.70;;
14118;SDS011;7138;49.246;9.100;2022-11-20T00:28:52;21.58;;;10.98;;
14118;SDS011;7138;49.246;9.100;2022-11-20T00:31:20;21.63;;;10.77;;
14118;SDS011;7138;49.246;9.100;2022-11-20T00:33:48;19.67;;;10.13;;
14118;SDS011;7138;49.246;9.100;2022-11-20T00:36:15;20.58;;;10.80;;
14118;SDS011;7138;49.246;9.100;2022-11-20T00:38:43;21.40;;;10.75;;
14118;SDS011;7138;49.246;9.100;2022-11-20T00:41:11;22.48;;;11.15;;
14118;SDS011;7138;49.246;9.100;2022-11-20T00:43:38;24.27;;;12.15;;
14118;SDS011;7138;49.246;9.100;2022-11-20T00:46:05;24.50;;;11.65;;
14118;SDS011;7138;49.246;9.100;2022-11-20T00:48:34;23.65;;;11.80;;
14118;SDS011;7138;49.246;9.100;2022-11-20T00:51:02;22.50;;;10.75;;
14118;SDS011;7138;49.246;9.100;2022-11-20T00:53:28;21.33;;;11.57;;
14118;SDS011;7138;49.246;9.100;2022-11-20T00:55:54;24.30;;;12.02;;
14118;SDS011;7138;49.246;9.100;2022-11-20T00:58:21;25.92;;;12.30;;
14118;SDS011;7138;49.246;9.100;2022-11-20T01:00:49;23.48;;;11.90;;
14118;SDS011;7138;49.246;9.100;2022-11-20T01:03:15;25.08;;;11.93;;
14118;SDS011;7138;49.246;9.100;2022-11-20T01:05:41;23.55;;;11.13;;
14118;SDS011;7138;49.246;9.100;2022-11-20T01:08:11;21.52;;;11.38;;
14118;SDS011;7138;49.246;9.100;2022-11-20T01:10:37;20.23;;;10.50;;
14118;SDS011;7138;49.246;9.100;2022-11-20T01:13:03;19.98;;;10.52;;
14118;SDS011;7138;49.246;9.100;2022-11-20T01:15:47;22.60;;;11.07;;
14118;SDS011;7138;49.246;9.100;2022-11-20T01:18:13;20.88;;;10.73;;
14118;SDS011;7138;49.246;9.100;2022-11-20T01:20:39;23.58;;;11.77;;
14118;SDS011;7138;49.246;9.100;2022-11-20T01:23:05;22.60;;;11.73;;
14118;SDS011;7138;49.246;9.100;2022-11-20T01:25:32;24.08;;;11.82;;
14118;SDS011;7138;49.246;9.100;2022-11-20T01:27:59;21.70;;;11.68;;
14118;SDS011;7138;49.246;9.100;2022-11-20T01:30:25;22.92;;;12.02;;
14118;SDS011;7138;49.246;9.100;2022-11-20T01:32:51;25.23;;;12.52;;
14118;SDS011;7138;49.246;9.100;2022-11-20T01:35:17;21.30;;;11.60;;
14118;SDS011;7138;49.246;9.100;2022-11-20T01:37:43;22.38;;;11.48;;
14118;SDS011;7138;49.246;9.100;2022-11-20T01:40:09;22.70;;;12.27;;
14118;SDS011;7138;49.246;9.100;2022-11-20T01:42:37;24.38;;;11.73;;
14118;SDS011;7138;49.246;9.100;2022-11-20T01:48:21;22.92;;;11.77;;
14118;SDS011;7138;49.246;9.100;2022-11-20T01:50:52;24.15;;;11.70;;
14118;SDS011;7138;49.246;9.100;2022-11-20T01:53:20;22.70;;;11.90;;
14118;SDS011;7138;49.246;9.100;2022-11-20T01:55:53;22.98;;;11.52;;
14118;SDS011;7138;49.246;9.100;2022-11-20T01:58:24;22.05;;;10.85;;
14118;SDS011;7138;49.246;9.100;2022-11-20T02:00:57;22.77;;;11.60;;
14118;SDS011;7138;49.246;9.100;2022-11-20T02:03:23;24.10;;;12.65;;
14118;SDS011;7138;49.246;9.100;2022-11-20T02:05:51;25.65;;;12.60;;
14118;SDS011;7138;49.246;9.100;2022-11-20T02:08:24;25.88;;;13.63;;
14118;SDS011;7138;49.246;9.100;2022-11-20T02:10:50;28.30;;;13.18;;
14118;SDS011;7138;49.246;9.100;2022-11-20T02:13:16;29.00;;;13.65;;
14118;SDS011;7138;49.246;9.100;2022-11-20T02:16:02;29.92;;;13.25;;
14118;SDS011;7138;49.246;9.100;2022-11-20T02:18:33;25.58;;;13.05;;
14118;SDS011;7138;49.246;9.100;2022-11-20T02:21:01;26.60;;;12.60;;
14118;SDS011;7138;49.246;9.100;2022-11-20T02:23:36;26.70;;;13.00;;
14118;SDS011;7138;49.246;9.100;2022-11-20T02:26:10;27.75;;;13.80;;
14118;SDS011;7138;49.246;9.100;2022-11-20T02:28:40;26.33;;;13.00;;
14118;SDS011;7138;49.246;9.100;2022-11-20T02:31:07;28.27;;;12.93;;
14118;SDS011;7138;49.246;9.100;2022-11-20T02:33:32;27.70;;;13.30;;
14118;SDS011;7138;49.246;9.100;2022-11-20T02:35:58;28.83;;;13.90;;
14118;SDS011;7138;49.246;9.100;2022-11-20T02:38:24;27.58;;;13.50;;
14118;SDS011;7138;49.246;9.100;2022-11-20T02:40:50;29.27;;;13.60;;
14118;SDS011;7138;49.246;9.100;2022-11-20T02:43:18;30.42;;;13.70;;
14118;SDS011;7138;49.246;9.100;2022-11-20T02:45:43;29.15;;;14.10;;
14118;SDS011;7138;49.246;9.100;2022-11-20T02:48:09;28.55;;;13.57;;
14118;SDS011;7138;49.246;9.100;2022-11-20T02:50:38;30.98;;;13.88;;
14118;SDS011;7138;49.246;9.100;2022-11-20T02:53:05;31.95;;;14.02;;
14118;SDS011;7138;49.246;9.100;2022-11-20T02:55:31;33.97;;;15.15;;
14118;SDS011;7138;49.246;9.100;2022-11-20T02:57:58;31.65;;;15.02;;
14118;SDS011;7138;49.246;9.100;2022-11-20T03:00:25;32.47;;;14.57;;
14118;SDS011;7138;49.246;9.100;2022-11-20T03:02:51;29.50;;;13.18;;
14118;SDS011;7138;49.246;9.100;2022-11-20T03:05:17;30.70;;;13.57;;
14118;SDS011;7138;49.246;9.100;2022-11-20T03:07:44;31.42;;;13.90;;
14118;SDS011;7138;49.246;9.100;2022-11-20T03:10:10;31.23;;;14.50;;
14118;SDS011;7138;49.246;9.100;2022-11-20T03:12:36;27.67;;;13.07;;
14118;SDS011;7138;49.246;9.100;2022-11-20T03:15:02;32.22;;;13.90;;
14118;SDS011;7138;49.246;9.100;2022-11-20T03:17:30;32.67;;;14.73;;
14118;SDS011;7138;49.246;9.100;2022-11-20T03:19:56;31.63;;;14.70;;
14118;SDS011;7138;49.246;9.100;2022-11-20T03:22:22;30.20;;;13.25;;
14118;SDS011;7138;49.246;9.100;2022-11-20T03:24:48;31.13;;;13.90;;
14118;SDS011;7138;49.246;9.100;2022-11-20T03:27:14;31.50;;;13.70;;
14118;SDS011;7138;49.246;9.100;2022-11-20T03:29:40;31.92;;;14.90;;
14118;SDS011;7138;49.246;9.100;2022-11-20T03:32:06;31.98;;;14.27;;
14118;SDS011;7138;49.246;9.100;2022-11-20T03:34:33;31.50;;;12.25;;
14118;SDS011;7138;49.246;9.100;2022-11-20T03:36:59;33.80;;;13.63;;
14118;SDS011;7138;49.246;9.100;2022-11-20T03:39:25;31.83;;;13.50;;
14118;SDS011;7138;49.246;9.100;2022-11-20T03:41:51;33.22;;;12.85;;
14118;SDS011;7138;49.246;9.100;2022-11-20T03:44:17;28.77;;;13.02;;
14118;SDS011;7138;49.246;9.100;2022-11-20T03:46:47;30.65;;;14.50;;
14118;SDS011;7138;49.246;9.100;2022-11-20T03:49:13;31.75;;;13.05;;
14118;SDS011;7138;49.246;9.100;2022-11-20T03:51:40;30.65;;;13.45;;
14118;SDS011;7138;49.246;9.100;2022-11-20T03:54:06;39.10;;;14.88;;
14118;SDS011;7138;49.246;9.100;2022-11-20T03:56:34;29.27;;;13.75;;
14118;SDS011;7138;49.246;9.100;2022-11-20T03:59:02;31.43;;;14.47;;
14118;SDS011;7138;49.246;9.100;2022-11-20T04:01:30;28.85;;;13.88;;
14118;SDS011;7138;49.246;9.100;2022-11-20T04:03:58;26.95;;;12.68;;
14118;SDS011;7138;49.246;9.100;2022-11-20T04:06:25;30.88;;;13.70;;
14118;SDS011;7138;49.246;9.100;2022-11-20T04:08:55;31.23;;;12.95;;
14118;SDS011;7138;49.246;9.100;2022-11-20T04:11:23;29.77;;;13.88;;
14118;SDS011;7138;49.246;9.100;2022-11-20T04:13:51;27.75;;;12.75;;
14118;SDS011;7138;49.246;9.100;2022-11-20T04:16:22;29.48;;;12.98;;
14118;SDS011;7138;49.246;9.100;2022-11-20T04:18:51;26.52;;;11.95;;
14118;SDS011;7138;49.246;9.100;2022-11-20T04:21:18;29.77;;;12.98;;
14118;SDS011;7138;49.246;9.100;2022-11-20T04:23:44;25.45;;;12.82;;
14118;SDS011;7138;49.246;9.100;2022-11-20T04:26:11;29.08;;;13.55;;
14118;SDS011;7138;49.246;9.100;2022-11-20T04:28:37;25.42;;;11.65;;
14118;SDS011;7138;49.246;9.100;2022-11-20T04:31:05;25.65;;;11.45;;
14118;SDS011;7138;49.246;9.100;2022-11-20T04:33:33;28.05;;;12.35;;
14118;SDS011;7138;49.246;9.100;2022-11-20T04:36:01;26.85;;;11.98;;
14118;SDS011;7138;49.246;9.100;2022-11-20T04:38:34;25.48;;;11.77;;
14118;SDS011;7138;49.246;9.100;2022-11-20T04:41:00;23.08;;;10.93;;
14118;SDS011;7138;49.246;9.100;2022-11-20T04:43:31;25.90;;;11.88;;
14118;SDS011;7138;49.246;9.100;2022-11-20T04:45:58;23.98;;;10.73;;
14118;SDS011;7138;49.246;9.100;2022-11-20T04:48:25;17.27;;;8.65;;
14118;SDS011;7138;49.246;9.100;2022-11-20T04:50:54;19.13;;;8.18;;
14118;SDS011;7138;49.246;9.100;2022-11-20T04:53:20;19.35;;;8.52;;
14118;SDS011;7138;49.246;9.100;2022-11-20T04:55:47;19.40;;;8.43;;
14118;SDS011;7138;49.246;9.100;2022-11-20T04:58:13;18.58;;;8.55;;
14118;SDS011;7138;49.246;9.100;2022-11-20T05:00:42;17.55;;;8.23;;
14118;SDS011;7138;49.246;9.100;2022-11-20T05:03:08;18.10;;;7.60;;
14118;SDS011;7138;49.246;9.100;2022-11-20T05:05:35;19.38;;;8.50;;
14118;SDS011;7138;49.246;9.100;2022-11-20T05:08:01;19.70;;;8.75;;
14118;SDS011;7138;49.246;9.100;2022-11-20T05:10:27;22.13;;;8.93;;
14118;SDS011;7138;49.246;9.100;2022-11-20T05:12:53;19.60;;;8.13;;
14118;SDS011;7138;49.246;9.100;2022-11-20T05:15:19;19.65;;;8.85;;
14118;SDS011;7138;49.246;9.100;2022-11-20T05:17:48;18.73;;;8.52;;
14118;SDS011;7138;49.246;9.100;2022-11-20T05:20:14;19.00;;;8.93;;
14118;SDS011;7138;49.246;9.100;2022-11-20T05:22:40;18.63;;;9.07;;
14118;SDS011;7138;49.246;9.100;2022-11-20T05:25:06;19.10;;;7.78;;
14118;SDS011;7138;49.246;9.100;2022-11-20T05:27:32;17.20;;;7.80;;
14118;SDS011;7138;49.246;9.100;2022-11-20T05:29:58;15.57;;;7.53;;
14118;SDS011;7138;49.246;9.100;2022-11-20T05:32:24;16.48;;;7.38;;
14118;SDS011;7138;49.246;9.100;2022-11-20T05:34:51;15.38;;;7.35;;
14118;SDS011;7138;49.246;9.100;2022-11-20T05:37:17;18.20;;;8.38;;
14118;SDS011;7138;49.246;9.100;2022-11-20T05:39:43;17.92;;;8.48;;
14118;SDS011;7138;49.246;9.100;2022-11-20T05:42:09;15.90;;;7.72;;
14118;SDS011;7138;49.246;9.100;2022-11-20T05:44:54;19.15;;;7.95;;
14118;SDS011;7138;49.246;9.100;2022-11-20T05:47:19;20.08;;;9.00;;
14118;SDS011;7138;49.246;9.100;2022-11-20T05:49:45;19.15;;;8.95;;
14118;SDS011;7138;49.246;9.100;2022-11-20T05:52:12;19.33;;;8.38;;
14118;SDS011;7138;49.246;9.100;2022-11-20T05:54:38;19.85;;;9.07;;
14118;SDS011;7138;49.246;9.100;2022-11-20T05:57:04;22.98;;;9.70;;
14118;SDS011;7138;49.246;9.100;2022-11-20T05:59:30;23.35;;;10.20;;
14118;SDS011;7138;49.246;9.100;2022-11-20T06:01:56;17.83;;;9.23;;
14118;SDS011;7138;49.246;9.100;2022-11-20T06:04:22;20.23;;;9.55;;
14118;SDS011;7138;49.246;9.100;2022-11-20T06:06:48;18.23;;;9.43;;
14118;SDS011;7138;49.246;9.100;2022-11-20T06:09:15;22.02;;;9.68;;
14118;SDS011;7138;49.246;9.100;2022-11-20T06:11:41;19.48;;;9.38;;
14118;SDS011;7138;49.246;9.100;2022-11-20T06:14:07;18.95;;;8.73;;
14118;SDS011;7138;49.246;9.100;2022-11-20T06:16:33;21.13;;;9.30;;
14118;SDS011;7138;49.246;9.100;2022-11-20T06:18:59;17.88;;;9.00;;
14118;SDS011;7138;49.246;9.100;2022-11-20T06:21:24;18.92;;;8.95;;
14118;SDS011;7138;49.246;9.100;2022-11-20T06:23:51;18.15;;;8.90;;
14118;SDS011;7138;49.246;9.100;2022-11-20T06:26:21;17.48;;;9.20;;
14118;SDS011;7138;49.246;9.100;2022-11-20T06:28:49;20.02;;;8.75;;
14118;SDS011;7138;49.246;9.100;2022-11-20T06:31:17;18.10;;;9.07;;
14118;SDS011;7138;49.246;9.100;2022-11-20T06:33:45;20.45;;;10.07;;
14118;SDS011;7138;49.246;9.100;2022-11-20T06:36:12;22.88;;;9.85;;
14118;SDS011;7138;49.246;9.100;2022-11-20T06:38:41;19.27;;;10.45;;
14118;SDS011;7138;49.246;9.100;2022-11-20T06:41:08;19.75;;;9.95;;
14118;SDS011;7138;49.246;9.100;2022-11-20T06:43:39;22.00;;;10.38;;
14118;SDS011;7138;49.246;9.100;2022-11-20T06:46:05;22.40;;;10.27;;
14118;SDS011;7138;49.246;9.100;2022-11-20T06:48:31;21.65;;;10.25;;
14118;SDS011;7138;49.246;9.100;2022-11-20T06:50:57;20.48;;;9.98;;
14118;SDS011;7138;49.246;9.100;2022-11-20T06:53:24;20.65;;;10.05;;
14118;SDS011;7138;49.246;9.100;2022-11-20T06:55:50;21.30;;;9.85;;
14118;SDS011;7138;49.246;9.100;2022-11-20T06:58:17;22.50;;;10.48;;
14118;SDS011;7138;49.246;9.100;2022-11-20T07:00:45;23.17;;;10.00;;
14118;SDS011;7138;49.246;9.100;2022-11-20T07:03:11;21.45;;;10.27;;
14118;SDS011;7138;49.246;9.100;2022-11-20T07:05:37;20.58;;;9.77;;
14118;SDS011;7138;49.246;9.100;2022-11-20T07:08:04;19.20;;;9.88;;
14118;SDS011;7138;49.246;9.100;2022-11-20T07:10:31;18.48;;;8.90;;
14118;SDS011;7138;49.246;9.100;2022-11-20T07:12:57;21.40;;;9.23;;
14118;SDS011;7138;49.246;9.100;2022-11-20T07:15:24;17.75;;;8.07;;
14118;SDS011;7138;49.246;9.100;2022-11-20T07:17:52;20.02;;;7.90;;
14118;SDS011;7138;49.246;9.100;2022-11-20T07:20:17;16.58;;;7.30;;
14118;SDS011;7138;49.246;9.100;2022-11-20T07:22:43;14.07;;;7.35;;
14118;SDS011;7138;49.246;9.100;2022-11-20T07:25:09;13.80;;;7.10;;
14118;SDS011;7138;49.246;9.100;2022-11-20T07:27:35;14.52;;;7.32;;
14118;SDS011;7138;49.246;9.100;2022-11-20T07:30:02;14.65;;;7.75;;
14118;SDS011;7138;49.246;9.100;2022-11-20T07:32:29;17.25;;;7.97;;
14118;SDS011;7138;49.246;9.100;2022-11-20T07:34:56;17.55;;;8.32;;
14118;SDS011;7138;49.246;9.100;2022-11-20T07:37:22;15.85;;;8.30;;
14118;SDS011;7138;49.246;9.100;2022-11-20T07:39:48;14.75;;;8.55;;
14118;SDS011;7138;49.246;9.100;2022-11-20T07:42:14;16.60;;;7.75;;
14118;SDS011;7138;49.246;9.100;2022-11-20T07:44:40;15.35;;;7.65;;
14118;SDS011;7138;49.246;9.100;2022-11-20T07:47:05;16.80;;;7.70;;
14118;SDS011;7138;49.246;9.100;2022-11-20T07:49:31;18.42;;;7.22;;
14118;SDS011;7138;49.246;9.100;2022-11-20T07:51:59;15.50;;;7.90;;
14118;SDS011;7138;49.246;9.100;2022-11-20T07:54:25;15.57;;;7.25;;
14118;SDS011;7138;49.246;9.100;2022-11-20T07:56:51;14.25;;;7.03;;
14118;SDS011;7138;49.246;9.100;2022-11-20T07:59:17;11.65;;;6.38;;
14118;SDS011;7138;49.246;9.100;2022-11-20T08:01:43;13.20;;;5.78;;
14118;SDS011;7138;49.246;9.100;2022-11-20T08:04:08;12.27;;;6.20;;
14118;SDS011;7138;49.246;9.100;2022-11-20T08:06:35;10.50;;;5.57;;
14118;SDS011;7138;49.246;9.100;2022-11-20T08:09:02;13.15;;;5.97;;
14118;SDS011;7138;49.246;9.100;2022-11-20T08:11:28;14.65;;;6.00;;
14118;SDS011;7138;49.246;9.100;2022-11-20T08:14:13;11.13;;;6.32;;
14118;SDS011;7138;49.246;9.100;2022-11-20T08:16:39;11.27;;;5.80;;
14118;SDS011;7138;49.246;9.100;2022-11-20T08:19:06;11.65;;;5.60;;
14118;SDS011;7138;49.246;9.100;2022-11-20T08:21:33;10.25;;;5.32;;
14118;SDS011;7138;49.246;9.100;2022-11-20T08:23:59;10.57;;;5.53;;
14118;SDS011;7138;49.246;9.100;2022-11-20T08:26:27;8.13;;;5.28;;
14118;SDS011;7138;49.246;9.100;2022-11-20T08:28:53;9.93;;;5.40;;
14118;SDS011;7138;49.246;9.100;2022-11-20T08:31:19;11.45;;;5.35;;
14118;SDS011;7138;49.246;9.100;2022-11-20T08:33:45;9.10;;;4.88;;
14118;SDS011;7138;49.246;9.100;2022-11-20T08:36:11;10.88;;;5.60;;
14118;SDS011;7138;49.246;9.100;2022-11-20T08:38:38;10.23;;;5.40;;
14118;SDS011;7138;49.246;9.100;2022-11-20T08:41:04;11.70;;;5.43;;
14118;SDS011;7138;49.246;9.100;2022-11-20T08:43:50;7.60;;;4.95;;
14118;SDS011;7138;49.246;9.100;2022-11-20T08:46:18;9.25;;;5.18;;
14118;SDS011;7138;49.246;9.100;2022-11-20T08:48:45;9.93;;;5.40;;
14118;SDS011;7138;49.246;9.100;2022-11-20T08:51:11;8.43;;;5.10;;
14118;SDS011;7138;49.246;9.100;2022-11-20T08:53:37;9.52;;;5.57;;
14118;SDS011;7138;49.246;9.100;2022-11-20T08:56:04;8.35;;;4.80;;
14118;SDS011;7138;49.246;9.100;2022-11-20T08:58:31;9.30;;;5.13;;
14118;SDS011;7138;49.246;9.100;2022-11-20T09:00:58;8.45;;;5.00;;
14118;SDS011;7138;49.246;9.100;2022-11-20T09:03:24;8.80;;;4.72;;
14118;SDS011;7138;49.246;9.100;2022-11-20T09:05:56;8.98;;;4.75;;
14118;SDS011;7138;49.246;9.100;2022-11-20T09:08:23;7.65;;;4.68;;
14118;SDS011;7138;49.246;9.100;2022-11-20T09:10:50;8.00;;;4.10;;
14118;SDS011;7138;49.246;9.100;2022-11-20T09:13:17;7.97;;;4.30;;
14118;SDS011;7138;49.246;9.100;2022-11-20T09:15:43;6.78;;;3.80;;
14118;SDS011;7138;49.246;9.100;2022-11-20T09:18:13;8.02;;;3.60;;
14118;SDS011;7138;49.246;9.100;2022-11-20T09:23:04;9.02;;;3.80;;
14118;SDS011;7138;49.246;9.100;2022-11-20T09:25:30;7.97;;;4.07;;
14118;SDS011;7138;49.246;9.100;2022-11-20T09:27:56;6.43;;;3.75;;
14118;SDS011;7138;49.246;9.100;2022-11-20T09:30:23;6.53;;;3.83;;
14118;SDS011;7138;49.246;9.100;2022-11-20T09:32:50;6.85;;;4.10;;
14118;SDS011;7138;49.246;9.100;2022-11-20T09:35:17;7.75;;;4.60;;
14118;SDS011;7138;49.246;9.100;2022-11-20T09:37:43;7.65;;;4.82;;
14118;SDS011;7138;49.246;9.100;2022-11-20T09:40:10;7.85;;;4.45;;
14118;SDS011;7138;49.246;9.100;2022-11-20T09:42:47;9.27;;;4.65;;
14118;SDS011;7138;49.246;9.100;2022-11-20T09:45:23;9.68;;;4.95;;
14118;SDS011;7138;49.246;9.100;2022-11-20T09:48:11;8.13;;;4.93;;
14118;SDS011;7138;49.246;9.100;2022-11-20T09:50:57;8.02;;;5.00;;
14118;SDS011;7138;49.246;9.100;2022-11-20T09:53:37;7.00;;;4.72;;
14118;SDS011;7138;49.246;9.100;2022-11-20T09:56:17;8.27;;;4.72;;
14118;SDS011;7138;49.246;9.100;2022-11-20T09:58:47;8.70;;;4.93;;
14118;SDS011;7138;49.246;9.100;2022-11-20T10:01:17;7.10;;;4.78;;
14118;SDS011;7138;49.246;9.100;2022-11-20T10:03:49;8.53;;;4.73;;
14118;SDS011;7138;49.246;9.100;2022-11-20T10:06:24;8.05;;;4.80;;
14118;SDS011;7138;49.246;9.100;2022-11-20T10:08:59;8.48;;;5.28;;
14118;SDS011;7138;49.246;9.100;2022-11-20T10:11:47;8.48;;;5.18;;
14118;SDS011;7138;49.246;9.100;2022-11-20T10:14:25;7.72;;;4.40;;
14118;SDS011;7138;49.246;9.100;2022-11-20T10:17:03;6.63;;;4.28;;
14118;SDS011;7138;49.246;9.100;2022-11-20T10:19:50;10.38;;;4.13;;
14118;SDS011;7138;49.246;9.100;2022-11-20T10:22:43;7.28;;;4.18;;
14118;SDS011;7138;49.246;9.100;2022-11-20T10:25:29;6.30;;;3.50;;
14118;SDS011;7138;49.246;9.100;2022-11-20T10:28:20;6.00;;;3.55;;
14118;SDS011;7138;49.246;9.100;2022-11-20T10:31:04;5.68;;;3.42;;
14118;SDS011;7138;49.246;9.100;2022-11-20T10:33:36;5.75;;;3.17;;
14118;SDS011;7138;49.246;9.100;2022-11-20T10:36:08;5.97;;;3.40;;
14118;SDS011;7138;49.246;9.100;2022-11-20T10:38:44;7.15;;;3.97;;
14118;SDS011;7138;49.246;9.100;2022-11-20T10:41:15;5.43;;;3.45;;
14118;SDS011;7138;49.246;9.100;2022-11-20T10:43:52;7.47;;;3.80;;
14118;SDS011;7138;49.246;9.100;2022-11-20T10:46:30;7.47;;;3.92;;
14118;SDS011;7138;49.246;9.100;2022-11-20T10:49:06;8.63;;;4.43;;
14118;SDS011;7138;49.246;9.100;2022-11-20T10:51:40;7.07;;;3.60;;
14118;SDS011;7138;49.246;9.100;2022-11-20T10:54:31;6.13;;;3.63;;
14118;SDS011;7138;49.246;9.100;2022-11-20T10:57:07;5.63;;;3.25;;
14118;SDS011;7138;49.246;9.100;2022-11-20T10:59:52;6.32;;;3.55;;
14118;SDS011;7138;49.246;9.100;2022-11-20T11:02:39;6.30;;;3.42;;
14118;SDS011;7138;49.246;9.100;2022-11-20T11:05:16;4.30;;;2.90;;
14118;SDS011;7138;49.246;9.100;2022-11-20T11:07:57;5.60;;;3.13;;
14118;SDS011;7138;49.246;9.100;2022-11-20T11:10:26;5.68;;;2.88;;
14118;SDS011;7138;49.246;9.100;2022-11-20T11:13:01;4.00;;;2.55;;
14118;SDS011;7138;49.246;9.100;2022-11-20T11:15:28;6.43;;;2.50;;
14118;SDS011;7138;49.246;9.100;2022-11-20T11:18:01;4.30;;;2.40;;
14118;SDS011;7138;49.246;9.100;2022-11-20T11:20:28;4.80;;;2.83;;
14118;SDS011;7138;49.246;9.100;2022-11-20T11:22:54;5.38;;;2.80;;
14118;SDS011;7138;49.246;9.100;2022-11-20T11:25:27;6.13;;;2.75;;
14118;SDS011;7138;49.246;9.100;2022-11-20T11:27:56;7.63;;;2.80;;
14118;SDS011;7138;49.246;9.100;2022-11-20T11:30:26;5.45;;;3.10;;
14118;SDS011;7138;49.246;9.100;2022-11-20T11:33:05;5.32;;;2.90;;
14118;SDS011;7138;49.246;9.100;2022-11-20T11:35:38;5.97;;;3.78;;
14118;SDS011;7138;49.246;9.100;2022-11-20T11:38:12;6.45;;;4.00;;
14118;SDS011;7138;49.246;9.100;2022-11-20T11:40:45;9.27;;;4.35;;
14118;SDS011;7138;49.246;9.100;2022-11-20T11:43:19;8.75;;;4.40;;
14118;SDS011;7138;49.246;9.100;2022-11-20T11:46:13;8.63;;;4.40;;
14118;SDS011;7138;49.246;9.100;2022-11-20T11:48:59;6.28;;;3.67;;
14118;SDS011;7138;49.246;9.100;2022-11-20T11:51:38;11.20;;;4.00;;
14118;SDS011;7138;49.246;9.100;2022-11-20T11:54:17;14.13;;;3.90;;
14118;SDS011;7138;49.246;9.100;2022-11-20T11:56:51;11.35;;;3.90;;
14118;SDS011;7138;49.246;9.100;2022-11-20T11:59:21;5.78;;;3.30;;
14118;SDS011;7138;49.246;9.100;2022-11-20T12:01:59;7.95;;;3.63;;
14118;SDS011;7138;49.246;9.100;2022-11-20T12:04:38;6.60;;;2.90;;
14118;SDS011;7138;49.246;9.100;2022-11-20T12:07:12;6.07;;;3.13;;
14118;SDS011;7138;49.246;9.100;2022-11-20T12:09:55;6.85;;;3.33;;
14118;SDS011;7138;49.246;9.100;2022-11-20T12:12:26;6.63;;;3.10;;
14118;SDS011;7138;49.246;9.100;2022-11-20T12:14:57;5.18;;;3.17;;
14118;SDS011;7138;49.246;9.100;2022-11-20T12:17:23;7.28;;;3.47;;
14118;SDS011;7138;49.246;9.100;2022-11-20T12:19:49;6.28;;;3.10;;
14118;SDS011;7138;49.246;9.100;2022-11-20T12:22:18;5.57;;;2.70;;
14118;SDS011;7138;49.246;9.100;2022-11-20T12:25:06;5.90;;;2.53;;
14118;SDS011;7138;49.246;9.100;2022-11-20T12:27:43;5.10;;;2.20;;
14118;SDS011;7138;49.246;9.100;2022-11-20T12:30:41;5.50;;;2.10;;
14118;SDS011;7138;49.246;9.100;2022-11-20T12:33:40;6.47;;;2.20;;
14118;SDS011;7138;49.246;9.100;2022-11-20T12:36:27;6.22;;;2.05;;
14118;SDS011;7138;49.246;9.100;2022-11-20T12:39:07;4.82;;;1.80;;
14118;SDS011;7138;49.246;9.100;2022-11-20T12:41:51;4.65;;;1.98;;
14118;SDS011;7138;49.246;9.100;2022-11-20T12:48:19;7.53;;;2.08;;
14118;SDS011;7138;49.246;9.100;2022-11-20T12:51:14;5.93;;;1.77;;
14118;SDS011;7138;49.246;9.100;2022-11-20T12:54:15;6.30;;;1.60;;
14118;SDS011;7138;49.246;9.100;2022-11-20T12:57:21;5.05;;;1.80;;
14118;SDS011;7138;49.246;9.100;2022-11-20T13:00:07;6.28;;;2.17;;
14118;SDS011;7138;49.246;9.100;2022-11-20T13:02:44;6.57;;;1.75;;
14118;SDS011;7138;49.246;9.100;2022-11-20T13:05:34;4.75;;;1.63;;
14118;SDS011;7138;49.246;9.100;2022-11-20T13:08:13;7.55;;;2.63;;
14118;SDS011;7138;49.246;9.100;2022-11-20T13:10:46;5.97;;;1.50;;
14118;SDS011;7138;49.246;9.100;2022-11-20T13:13:22;6.22;;;1.70;;
14118;SDS011;7138;49.246;9.100;2022-11-20T13:15:59;7.10;;;1.70;;
14118;SDS011;7138;49.246;9.100;2022-11-20T13:18:35;9.23;;;1.77;;
14118;SDS011;7138;49.246;9.100;2022-11-20T13:21:13;6.30;;;1.80;;
14118;SDS011;7138;49.246;9.100;2022-11-20T13:23:41;5.60;;;1.63;;
14118;SDS011;7138;49.246;9.100;2022-11-20T13:26:13;4.85;;;1.77;;
14118;SDS011;7138;49.246;9.100;2022-11-20T13:28:45;5.82;;;1.75;;
14118;SDS011;7138;49.246;9.100;2022-11-20T13:31:26;7.43;;;1.42;;
14118;SDS011;7138;49.246;9.100;2022-11-20T13:33:58;7.32;;;1.63;;
14118;SDS011;7138;49.246;9.100;2022-11-20T13:36:28;5.68;;;1.60;;
14118;SDS011;7138;49.246;9.100;2022-11-20T13:38:55;9.80;;;2.28;;
14118;SDS011;7138;49.246;9.100;2022-11-20T13:41:25;6.63;;;1.95;;
14118;SDS011;7138;49.246;9.100;2022-11-20T13:43:57;5.68;;;1.55;;
14118;SDS011;7138;49.246;9.100;2022-11-20T13:46:35;5.72;;;1.70;;
14118;SDS011;7138;49.246;9.100;2022-11-20T13:49:09;3.80;;;1.48;;
14118;SDS011;7138;49.246;9.100;2022-11-20T13:51:43;6.30;;;1.35;;
14118;SDS011;7138;49.246;9.100;2022-11-20T13:54:26;3.92;;;1.02;;
14118;SDS011;7138;49.246;9.100;2022-11-20T13:57:30;5.75;;;1.30;;
14118;SDS011;7138;49.246;9.100;2022-11-20T14:00:27;4.97;;;1.20;;
14118;SDS011;7138;49.246;9.100;2022-11-20T14:03:02;5.85;;;1.30;;
14118;SDS011;7138;49.246;9.100;2022-11-20T14:05:49;7.63;;;1.40;;
14118;SDS011;7138;49.246;9.100;2022-11-20T14:08:21;4.25;;;1.55;;
14118;SDS011;7138;49.246;9.100;2022-11-20T14:11:03;6.88;;;1.50;;
14118;SDS011;7138;49.246;9.100;2022-11-20T14:13:37;6.45;;;1.48;;
14118;SDS011;7138;49.246;9.100;2022-11-20T14:16:03;5.10;;;1.50;;
14118;SDS011;7138;49.246;9.100;2022-11-20T14:18:29;7.50;;;1.65;;
14118;SDS011;7138;49.246;9.100;2022-11-20T14:20:56;5.38;;;1.40;;
14118;SDS011;7138;49.246;9.100;2022-11-20T14:23:27;6.78;;;1.60;;
14118;SDS011;7138;49.246;9.100;2022-11-20T14:25:54;7.55;;;1.85;;
14118;SDS011;7138;49.246;9.100;2022-11-20T14:28:22;5.18;;;1.90;;
14118;SDS011;7138;49.246;9.100;2022-11-20T14:30:52;5.22;;;1.30;;
14118;SDS011;7138;49.246;9.100;2022-11-20T14:33:19;3.20;;;1.10;;
14118;SDS011;7138;49.246;9.100;2022-11-20T14:35:50;4.35;;;1.30;;
14118;SDS011;7138;49.246;9.100;2022-11-20T14:38:22;4.70;;;1.40;;
14118;SDS011;7138;49.246;9.100;2022-11-20T14:40:52;6.22;;;1.20;;
14118;SDS011;7138;49.246;9.100;2022-11-20T14:43:19;5.35;;;1.58;;
14118;SDS011;7138;49.246;9.100;2022-11-20T14:45:52;4.30;;;1.08;;
14118;SDS011;7138;49.246;9.100;2022-11-20T14:48:24;5.93;;;1.10;;
14118;SDS011;7138;49.246;9.100;2022-11-20T14:50:56;5.10;;;0.85;;
14118;SDS011;7138;49.246;9.100;2022-11-20T14:53:24;3.97;;;1.00;;
14118;SDS011;7138;49.246;9.100;2022-11-20T14:55:54;2.92;;;0.77;;
14118;SDS011;7138;49.246;9.100;2022-11-20T14:58:25;5.22;;;0.80;;
14118;SDS011;7138;49.246;9.100;2022-11-20T15:00:53;3.38;;;0.77;;
14118;SDS011;7138;49.246;9.100;2022-11-20T15:03:21;2.25;;;0.70;;
14118;SDS011;7138;49.246;9.100;2022-11-20T15:05:48;2.88;;;0.73;;
14118;SDS011;7138;49.246;9.100;2022-11-20T15:08:15;4.38;;;0.90;;
14118;SDS011;7138;49.246;9.100;2022-11-20T15:10:46;5.18;;;0.98;;
14118;SDS011;7138;49.246;9.100;2022-11-20T15:13:15;5.35;;;1.02;;
14118;SDS011;7138;49.246;9.100;2022-11-20T15:15:49;3.78;;;0.90;;
14118;SDS011;7138;49.246;9.100;2022-11-20T15:18:18;3.58;;;1.00;;